createdAt,value
2022-12-25T00:07:16.592Z,9.58
2022-12-25T00:17:16.809Z,9.46
2022-12-25T00:27:16.977Z,9.63
2022-12-25T00:37:17.212Z,9.58
2022-12-25T00:47:17.468Z,9.60
2022-12-25T00:57:17.805Z,9.81
2022-12-25T01:07:17.690Z,9.78
2022-12-25T01:17:17.885Z,9.63
2022-12-25T01:27:18.108Z,10.12
2022-12-25T01:37:18.412Z,9.93
2022-12-25T01:47:18.527Z,10.04
2022-12-25T01:57:18.708Z,9.96
2022-12-25T02:07:18.874Z,9.93
2022-12-25T02:17:19.194Z,9.76
2022-12-25T02:27:19.335Z,9.49
2022-12-25T02:37:19.613Z,9.35
2022-12-25T02:47:19.567Z,9.42
2022-12-25T02:57:19.786Z,9.46
2022-12-25T03:07:19.965Z,9.31
2022-12-25T03:17:20.494Z,8.93
2022-12-25T03:27:20.362Z,8.69
2022-12-25T03:37:20.475Z,8.60
2022-12-25T03:47:20.635Z,8.37
2022-12-25T03:57:20.848Z,8.36
2022-12-25T04:07:21.006Z,8.37
2022-12-25T04:17:21.356Z,8.14
2022-12-25T04:27:21.455Z,8.14
2022-12-25T04:37:21.686Z,8.08
2022-12-25T04:47:21.785Z,8.17
2022-12-25T04:57:22.002Z,8.21
2022-12-25T05:07:22.198Z,8.26
2022-12-25T05:17:22.454Z,8.10
2022-12-25T05:27:22.549Z,8.14
2022-12-25T05:37:22.661Z,8.28
2022-12-25T05:47:22.853Z,8.44
2022-12-25T05:57:23.112Z,8.54
2022-12-25T06:07:23.163Z,8.76
2022-12-25T06:17:23.658Z,9.75
2022-12-25T06:27:23.483Z,10.47
2022-12-25T06:37:23.704Z,10.71
2022-12-25T06:47:23.853Z,9.71
2022-12-25T06:57:24.156Z,9.49
2022-12-25T07:07:24.214Z,9.79
2022-12-25T07:17:24.407Z,10.58
2022-12-25T07:27:24.659Z,11.13
2022-12-25T07:37:24.655Z,11.41
2022-12-25T07:47:24.708Z,11.54
2022-12-25T07:57:24.918Z,10.55
2022-12-25T08:07:25.096Z,10.86
2022-12-25T08:17:25.295Z,11.68
2022-12-25T08:27:25.480Z,12.29
2022-12-25T08:37:25.683Z,12.79
2022-12-25T08:47:25.958Z,12.69
2022-12-25T08:57:26.267Z,12.92
2022-12-25T09:07:26.219Z,13.25
2022-12-25T09:17:26.523Z,13.56
2022-12-25T09:27:26.780Z,13.61
2022-12-25T09:37:26.743Z,13.98
2022-12-25T09:47:27.017Z,14.95
2022-12-25T09:57:27.320Z,14.91
2022-12-25T10:07:27.254Z,16.63
2022-12-25T10:17:27.486Z,16.20
2022-12-25T10:27:27.684Z,15.81
2022-12-25T10:37:27.898Z,17.06
2022-12-25T10:47:28.079Z,16.74
2022-12-25T10:57:28.393Z,17.06
2022-12-25T11:07:28.632Z,17.22
2022-12-25T11:17:28.609Z,16.20
2022-12-25T11:27:28.795Z,15.51
2022-12-25T11:37:29.185Z,15.49
2022-12-25T11:47:29.114Z,16.80
2022-12-25T11:57:29.332Z,17.87
2022-12-25T12:07:29.505Z,17.95
2022-12-25T12:17:29.697Z,16.74
2022-12-25T12:27:29.868Z,17.57
2022-12-25T12:37:30.081Z,18.10
2022-12-25T12:47:30.284Z,18.57
2022-12-25T12:57:30.491Z,17.84
2022-12-25T13:07:30.654Z,18.39
2022-12-25T13:17:30.871Z,17.66
2022-12-25T13:27:31.053Z,17.32
2022-12-25T13:37:31.201Z,16.55
2022-12-25T13:47:31.356Z,16.44
2022-12-25T13:57:31.559Z,16.20
2022-12-25T14:07:31.713Z,16.14
2022-12-25T14:17:32.092Z,16.18
2022-12-25T14:27:32.052Z,16.11
2022-12-25T14:37:32.259Z,16.04
2022-12-25T14:47:32.423Z,15.66
2022-12-25T14:57:32.607Z,15.52
2022-12-25T15:07:32.838Z,15.54
2022-12-25T15:17:32.809Z,15.20
2022-12-25T15:27:32.979Z,15.15
2022-12-25T15:37:33.198Z,15.43
2022-12-25T15:47:33.647Z,15.38
2022-12-25T15:57:33.658Z,14.98
2022-12-25T16:07:33.898Z,14.95
2022-12-25T16:17:33.908Z,14.65
2022-12-25T16:27:33.956Z,14.72
2022-12-25T16:37:34.170Z,14.56
2022-12-25T16:47:34.333Z,14.42
2022-12-25T16:57:34.714Z,14.56
2022-12-25T17:07:34.668Z,14.44
2022-12-25T17:17:34.867Z,14.16
2022-12-25T17:27:35.066Z,14.04
2022-12-25T17:37:35.273Z,13.98
2022-12-25T17:47:35.459Z,14.12
2022-12-25T17:57:35.764Z,13.81
2022-12-25T18:07:35.697Z,13.88
2022-12-25T18:17:35.897Z,14.06
2022-12-25T18:27:36.088Z,14.19
2022-12-25T18:37:40.197Z,14.01
2022-12-25T18:47:36.450Z,13.46
2022-12-25T18:57:36.634Z,13.33
2022-12-25T19:07:36.849Z,13.41
2022-12-25T19:17:36.994Z,13.63
2022-12-25T19:27:37.191Z,13.80
2022-12-25T19:37:37.400Z,13.69
2022-12-25T19:47:37.474Z,13.80
2022-12-25T19:57:37.654Z,13.63
2022-12-25T20:07:37.982Z,13.47
2022-12-25T20:17:38.078Z,13.58
2022-12-25T20:27:38.257Z,13.51
2022-12-25T20:37:38.471Z,13.55
2022-12-25T20:47:38.632Z,13.79
2022-12-25T20:57:38.834Z,13.74
2022-12-25T21:07:39.013Z,13.37
2022-12-25T21:17:39.476Z,13.56
2022-12-25T21:27:39.417Z,13.04
2022-12-25T21:37:39.726Z,13.06
2022-12-25T21:48:02.393Z,13.00
2022-12-25T21:57:40.832Z,12.70
2022-12-25T22:07:39.900Z,12.39
2022-12-25T22:17:40.101Z,12.37
2022-12-25T22:27:40.288Z,12.23
2022-12-25T22:37:40.514Z,12.01
2022-12-25T22:47:40.681Z,12.19
2022-12-25T22:57:40.889Z,12.19
2022-12-25T23:07:41.069Z,12.23
2022-12-25T23:17:41.262Z,12.20
2022-12-25T23:27:41.443Z,11.90
2022-12-25T23:37:41.654Z,11.80
2022-12-25T23:47:41.812Z,11.62
2022-12-25T23:57:41.996Z,11.64
